createdAt,value
2023-03-21T00:01:58.107Z,67.69
2023-03-21T00:06:08.847Z,67.70
2023-03-21T00:14:33.134Z,67.64
2023-03-21T00:18:42.505Z,68.09
2023-03-21T00:22:44.626Z,68.05
2023-03-21T00:26:47.071Z,68.57
2023-03-21T00:30:49.449Z,69.23
2023-03-21T00:35:11.795Z,69.93
2023-03-21T00:39:14.343Z,70.31
2023-03-21T00:43:18.384Z,71.00
2023-03-21T00:47:20.804Z,71.83
2023-03-21T00:51:27.935Z,72.80
2023-03-21T00:55:30.157Z,74.80
2023-03-21T00:59:32.164Z,74.66
2023-03-21T01:03:42.472Z,74.40
2023-03-21T01:07:46.972Z,73.91
2023-03-21T01:11:49.845Z,74.38
2023-03-21T01:15:55.657Z,74.46
2023-03-21T01:19:57.671Z,74.67
2023-03-21T01:24:00.015Z,74.52
2023-03-21T01:28:02.180Z,74.10
2023-03-21T01:32:04.652Z,74.48
2023-03-21T01:36:13.296Z,74.42
2023-03-21T01:40:19.469Z,74.29
2023-03-21T01:44:22.779Z,74.11
2023-03-21T01:48:28.347Z,74.25
2023-03-21T01:52:39.017Z,75.43
2023-03-21T01:56:47.851Z,77.18
2023-03-21T02:00:52.758Z,78.42
2023-03-21T02:05:07.073Z,78.83
2023-03-21T02:09:13.493Z,78.92
2023-03-21T02:13:16.197Z,78.58
2023-03-21T02:17:27.244Z,78.71
2023-03-21T02:21:41.968Z,79.15
2023-03-21T02:25:56.878Z,79.44
2023-03-21T02:30:45.626Z,80.37
2023-03-21T02:35:12.388Z,80.68
2023-03-21T02:39:30.546Z,80.45
2023-03-21T02:43:43.634Z,80.86
2023-03-21T02:47:52.581Z,80.99
2023-03-21T02:52:05.453Z,81.73
2023-03-21T02:56:16.434Z,82.83
2023-03-21T03:00:27.832Z,83.65
2023-03-21T03:04:30.961Z,84.36
2023-03-21T03:09:01.292Z,85.29
2023-03-21T03:13:21.561Z,86.00
2023-03-21T03:17:37.278Z,86.41
2023-03-21T03:21:44.568Z,87.71
2023-03-21T03:25:53.538Z,89.03
2023-03-21T03:30:01.749Z,89.63
2023-03-21T03:34:10.866Z,90.89
2023-03-21T03:38:17.297Z,90.51
2023-03-21T03:42:31.713Z,90.85
2023-03-21T03:46:51.029Z,91.14
2023-03-21T03:51:09.474Z,90.40
2023-03-21T03:55:34.558Z,89.73
2023-03-21T03:59:46.450Z,89.63
2023-03-21T04:04:13.331Z,88.03
2023-03-21T04:08:17.516Z,89.23
2023-03-21T04:12:25.513Z,89.52
2023-03-21T04:16:47.851Z,89.96
2023-03-21T04:20:51.459Z,89.68
2023-03-21T04:24:54.076Z,90.22
2023-03-21T04:28:56.418Z,89.94
2023-03-21T04:33:00.985Z,90.42
2023-03-21T04:37:11.003Z,90.51
2023-03-21T04:41:14.886Z,89.72
2023-03-21T04:45:17.711Z,89.99
2023-03-21T04:49:21.307Z,90.08
2023-03-21T04:53:23.363Z,89.76
2023-03-21T04:57:25.593Z,89.56
2023-03-21T05:01:30.773Z,89.93
2023-03-21T05:05:33.646Z,89.64
2023-03-21T05:09:35.768Z,89.64
2023-03-21T05:13:38.239Z,88.83
2023-03-21T05:17:42.657Z,88.95
2023-03-21T05:21:45.133Z,89.29
2023-03-21T05:25:54.306Z,89.55
2023-03-21T05:30:18.536Z,89.64
2023-03-21T05:34:23.831Z,89.69
2023-03-21T05:38:26.575Z,89.10
2023-03-21T05:42:29.263Z,89.16
2023-03-21T05:46:31.573Z,88.74
2023-03-21T05:50:34.768Z,89.02
2023-03-21T05:54:44.545Z,88.21
2023-03-21T05:58:46.908Z,88.04
2023-03-21T06:02:49.277Z,87.62
2023-03-21T06:07:07.582Z,87.70
2023-03-21T06:11:24.444Z,86.71
2023-03-21T06:15:30.851Z,86.35
2023-03-21T06:19:46.111Z,86.47
2023-03-21T06:23:59.748Z,86.88
2023-03-21T06:28:01.900Z,85.62
2023-03-21T06:32:04.901Z,84.80
2023-03-21T06:36:07.717Z,83.38
2023-03-21T06:40:10.752Z,83.15
2023-03-21T06:44:12.931Z,84.30
2023-03-21T06:48:24.493Z,83.40
2023-03-21T06:52:26.746Z,82.80
2023-03-21T06:56:29.240Z,82.43
2023-03-21T07:00:32.715Z,80.94
2023-03-21T07:04:34.948Z,79.80
2023-03-21T07:08:38.861Z,78.09
2023-03-21T07:12:41.107Z,76.93
2023-03-21T07:16:54.913Z,76.78
2023-03-21T07:20:57.060Z,76.94
2023-03-21T07:25:05.257Z,76.25
2023-03-21T07:29:13.354Z,75.49
2023-03-21T07:33:15.376Z,75.67
2023-03-21T07:37:17.451Z,74.93
2023-03-21T07:41:19.439Z,73.06
2023-03-21T07:45:23.577Z,72.09
2023-03-21T07:49:26.482Z,71.77
2023-03-21T07:53:28.465Z,70.69
2023-03-21T07:57:30.913Z,68.66
2023-03-21T08:01:32.983Z,68.05
2023-03-21T08:05:38.119Z,68.17
2023-03-21T08:09:40.779Z,67.26
2023-03-21T08:13:42.843Z,66.36
2023-03-21T08:17:47.794Z,66.09
2023-03-21T08:21:49.827Z,66.65
2023-03-21T08:25:55.824Z,66.59
2023-03-21T08:29:58.712Z,66.29
2023-03-21T08:34:00.839Z,66.72
2023-03-21T08:38:06.847Z,67.48
2023-03-21T08:42:08.847Z,67.06
2023-03-21T08:46:10.929Z,67.28
2023-03-21T08:50:15.792Z,66.78
2023-03-21T08:54:21.372Z,66.11
2023-03-21T08:58:23.438Z,64.53
2023-03-21T09:02:25.524Z,65.10
2023-03-21T09:06:28.002Z,65.59
2023-03-21T09:10:30.317Z,65.11
2023-03-21T09:14:33.175Z,64.32
2023-03-21T09:18:49.357Z,64.14
2023-03-21T09:22:52.578Z,63.71
2023-03-21T09:26:54.612Z,63.42
2023-03-21T09:30:59.123Z,62.66
2023-03-21T09:35:01.120Z,62.00
2023-03-21T09:39:04.125Z,61.74
2023-03-21T09:43:43.871Z,61.84
2023-03-21T09:47:56.978Z,62.34
2023-03-21T09:52:03.493Z,61.78
2023-03-21T09:56:11.271Z,61.43
2023-03-21T10:00:20.839Z,61.31
2023-03-21T10:04:25.026Z,61.26
2023-03-21T10:08:36.941Z,60.62
2023-03-21T10:12:38.922Z,60.77
2023-03-21T10:16:43.899Z,59.90
2023-03-21T10:20:46.780Z,59.40
2023-03-21T10:24:48.811Z,59.20
2023-03-21T10:28:53.307Z,58.15
2023-03-21T10:33:05.107Z,57.00
2023-03-21T10:37:07.847Z,57.67
2023-03-21T10:41:11.696Z,57.23
2023-03-21T10:45:20.032Z,56.80
2023-03-21T10:49:22.148Z,58.37
2023-03-21T10:53:39.304Z,60.18
2023-03-21T10:57:41.412Z,62.36
2023-03-21T11:01:48.927Z,63.59
2023-03-21T11:05:57.320Z,65.40
2023-03-21T11:10:01.213Z,66.83
2023-03-21T11:14:09.697Z,68.10
2023-03-21T11:18:20.033Z,70.09
2023-03-21T11:22:24.806Z,70.84
2023-03-21T11:26:32.250Z,71.76
2023-03-21T11:30:34.503Z,72.58
2023-03-21T11:34:50.994Z,73.55
2023-03-21T11:38:57.447Z,73.14
2023-03-21T11:43:04.187Z,74.15
2023-03-21T11:47:10.351Z,74.52
2023-03-21T11:51:36.932Z,75.61
2023-03-21T11:56:06.520Z,75.94
2023-03-21T12:00:25.820Z,76.48
2023-03-21T12:04:46.517Z,75.30
2023-03-21T12:09:03.705Z,75.17
2023-03-21T12:13:30.231Z,76.71
2023-03-21T12:17:58.759Z,77.58
2023-03-21T12:22:24.701Z,78.16
2023-03-21T12:26:37.417Z,79.67
2023-03-21T12:30:54.510Z,80.45
2023-03-21T12:35:14.929Z,78.71
2023-03-21T12:39:16.929Z,77.68
2023-03-21T12:43:40.389Z,78.56
2023-03-21T12:47:48.638Z,78.25
2023-03-21T12:51:58.109Z,77.43
2023-03-21T12:56:05.597Z,77.73
2023-03-21T13:00:13.227Z,77.77
2023-03-21T13:04:34.658Z,78.38
2023-03-21T13:08:46.481Z,77.01
2023-03-21T13:13:03.823Z,77.63
2023-03-21T13:17:24.798Z,77.59
2023-03-21T13:21:37.860Z,78.43
2023-03-21T13:25:47.115Z,78.90
2023-03-21T13:29:54.334Z,78.88
2023-03-21T13:33:59.710Z,78.73
2023-03-21T13:38:12.836Z,79.31
2023-03-21T13:42:29.108Z,79.42
2023-03-21T13:46:38.099Z,80.28
2023-03-21T13:51:00.757Z,81.04
2023-03-21T13:55:03.660Z,80.80
2023-03-21T13:59:11.228Z,82.05
2023-03-21T14:03:20.804Z,83.17
2023-03-21T14:07:27.065Z,84.30
2023-03-21T14:11:32.391Z,85.35
2023-03-21T14:15:49.728Z,85.74
2023-03-21T14:20:16.255Z,86.61
2023-03-21T14:24:20.224Z,87.32
2023-03-21T14:28:28.520Z,87.49
2023-03-21T14:32:31.091Z,87.76
2023-03-21T14:36:38.914Z,88.44
2023-03-21T14:40:47.969Z,88.71
2023-03-21T14:44:55.932Z,89.30
2023-03-21T14:49:09.723Z,90.57
2023-03-21T14:53:16.490Z,90.98
2023-03-21T14:57:24.990Z,91.25
2023-03-21T15:01:34.568Z,92.35
2023-03-21T15:05:38.424Z,93.25
2023-03-21T15:09:40.949Z,94.08
2023-03-21T15:13:54.719Z,93.41
2023-03-21T15:18:04.863Z,93.74
2023-03-21T15:22:18.691Z,94.23
2023-03-21T15:26:24.296Z,95.09
2023-03-21T15:30:28.941Z,95.18
2023-03-21T15:34:31.624Z,94.88
2023-03-21T15:38:42.521Z,95.40
2023-03-21T15:42:44.602Z,95.17
2023-03-21T15:46:51.545Z,94.60
2023-03-21T15:51:06.068Z,94.80
2023-03-21T15:55:25.899Z,95.02
2023-03-21T15:59:32.810Z,94.80
2023-03-21T16:03:45.794Z,94.93
2023-03-21T16:07:48.630Z,95.45
2023-03-21T16:11:51.877Z,95.92
2023-03-21T16:15:54.465Z,95.61
2023-03-21T16:19:56.663Z,95.53
2023-03-21T16:23:58.828Z,96.15
2023-03-21T16:28:00.861Z,96.75
2023-03-21T16:32:06.124Z,96.99
2023-03-21T16:36:38.720Z,98.06
2023-03-21T16:40:43.286Z,98.11
2023-03-21T16:44:45.630Z,99.16
2023-03-21T16:48:50.844Z,99.58
2023-03-21T16:52:54.684Z,98.98
2023-03-21T16:56:58.993Z,99.86
2023-03-21T17:01:01.406Z,100.00
2023-03-21T17:05:04.945Z,100.00
2023-03-21T17:09:07.468Z,100.00
2023-03-21T17:13:10.974Z,100.00
2023-03-21T17:17:14.507Z,100.00
2023-03-21T17:21:19.493Z,100.00
2023-03-21T17:25:21.606Z,100.00
2023-03-21T17:29:23.642Z,100.00
2023-03-21T17:33:25.666Z,100.00
2023-03-21T17:37:27.734Z,100.00
2023-03-21T17:41:29.770Z,100.00
2023-03-21T17:45:31.791Z,100.00
2023-03-21T17:49:33.789Z,100.00
2023-03-21T17:53:35.816Z,100.00
2023-03-21T17:57:38.106Z,100.00
2023-03-21T18:01:41.425Z,100.00
2023-03-21T18:05:43.461Z,100.00
2023-03-21T18:09:45.535Z,100.00
2023-03-21T18:13:48.492Z,100.00
2023-03-21T18:17:51.028Z,100.00
2023-03-21T18:21:53.171Z,100.00
2023-03-21T18:25:55.440Z,100.00
2023-03-21T18:34:20.559Z,100.00
2023-03-21T18:38:22.770Z,100.00
2023-03-21T18:42:30.554Z,100.00
2023-03-21T18:46:33.047Z,100.00
2023-03-21T18:50:35.407Z,100.00
2023-03-21T18:54:38.311Z,100.00
2023-03-21T18:58:40.327Z,100.00
2023-03-21T19:02:48.361Z,100.00
2023-03-21T19:06:50.562Z,100.00
2023-03-21T19:10:53.167Z,100.00
2023-03-21T19:14:55.616Z,100.00
2023-03-21T19:18:57.839Z,100.00
2023-03-21T19:22:59.984Z,100.00
2023-03-21T19:27:02.046Z,100.00
2023-03-21T19:31:08.333Z,100.00
2023-03-21T19:35:10.390Z,100.00
2023-03-21T19:39:13.246Z,100.00
2023-03-21T19:43:32.355Z,100.00
2023-03-21T19:47:35.427Z,100.00
2023-03-21T19:51:37.684Z,100.00
2023-03-21T19:55:39.763Z,100.00
2023-03-21T19:59:42.044Z,100.00
2023-03-21T20:03:47.319Z,100.00
2023-03-21T20:07:49.395Z,100.00
2023-03-21T20:11:53.206Z,100.00
2023-03-21T20:15:57.081Z,100.00
2023-03-21T20:20:00.149Z,100.00
2023-03-21T20:24:03.534Z,100.00
2023-03-21T20:28:15.867Z,100.00
2023-03-21T20:32:22.195Z,100.00
2023-03-21T20:36:38.576Z,100.00
2023-03-21T20:40:41.813Z,100.00
2023-03-21T20:45:00.731Z,100.00
2023-03-21T20:49:05.688Z,100.00
2023-03-21T20:53:09.410Z,100.00
2023-03-21T20:57:12.601Z,100.00
2023-03-21T21:01:16.702Z,100.00
2023-03-21T21:05:30.647Z,100.00
2023-03-21T21:09:34.925Z,100.00
2023-03-21T21:13:37.697Z,100.00
2023-03-21T21:18:03.887Z,100.00
2023-03-21T21:22:01.737Z,100.00
2023-03-21T21:26:05.550Z,100.00
2023-03-21T21:30:09.748Z,100.00
2023-03-21T21:34:11.895Z,100.00
2023-03-21T21:38:17.536Z,100.00
2023-03-21T21:42:19.624Z,100.00
2023-03-21T21:46:21.685Z,100.00
2023-03-21T21:50:24.462Z,100.00
2023-03-21T21:54:30.085Z,100.00
2023-03-21T21:58:38.852Z,100.00
2023-03-21T22:02:41.291Z,100.00
2023-03-21T22:06:43.488Z,100.00
2023-03-21T22:10:46.764Z,100.00
2023-03-21T22:14:48.792Z,100.00
2023-03-21T22:18:50.821Z,100.00
2023-03-21T22:22:52.933Z,100.00
2023-03-21T22:26:57.987Z,100.00
2023-03-21T22:31:08.491Z,100.00
2023-03-21T22:35:10.646Z,100.00
2023-03-21T22:39:13.540Z,100.00
2023-03-21T22:43:15.865Z,100.00
2023-03-21T22:47:17.971Z,100.00
2023-03-21T22:51:19.982Z,100.00
2023-03-21T22:55:22.006Z,100.00
2023-03-21T22:59:24.830Z,100.00
2023-03-21T23:03:26.896Z,100.00
2023-03-21T23:07:28.906Z,100.00
2023-03-21T23:11:30.952Z,100.00
2023-03-21T23:15:33.207Z,100.00
2023-03-21T23:19:35.716Z,100.00
2023-03-21T23:23:37.825Z,100.00
2023-03-21T23:27:39.826Z,100.00
2023-03-21T23:31:41.837Z,100.00
2023-03-21T23:35:43.871Z,100.00
2023-03-21T23:39:45.886Z,100.00
2023-03-21T23:43:48.536Z,100.00
2023-03-21T23:47:50.641Z,100.00
2023-03-21T23:51:52.691Z,100.00
2023-03-21T23:55:58.422Z,100.00
